Time;durP1;ratioP1;P1;durP2;ratioP2;P2;SDS_P1;SDS_P2;PMS_P1;PMS_P2;Temp;Humidity;BMP_temperature;BMP_pressure;BME280_temperature;BME280_humidity;BME280_pressure;Samples;Min_cycle;Max_cycle;Signal;HPM_P1;HPM_P2
2023/09/02 00:00:13;;;;;;;3.40;2.53;;;18.10;65.30;;;;;;4939962;28;19923;-87
2023/09/02 00:02:41;;;;;;;3.72;2.85;;;18.10;64.90;;;;;;4940629;28;20055;-86
2023/09/02 00:05:09;;;;;;;2.72;2.40;;;18.10;65.00;;;;;;4939319;28;20059;-87
2023/09/02 00:07:37;;;;;;;3.80;2.85;;;18.10;65.10;;;;;;4939784;28;20882;-86
2023/09/02 00:10:06;;;;;;;2.53;2.33;;;18.00;65.10;;;;;;4940628;28;20175;-87
2023/09/02 00:12:38;;;;;;;4.15;3.05;;;18.00;65.20;;;;;;4938728;28;20062;-87
2023/09/02 00:15:09;;;;;;;3.30;2.90;;;18.00;65.30;;;;;;4938338;28;20419;-87
2023/09/02 00:17:39;;;;;;;6.28;3.22;;;18.00;65.10;;;;;;4939251;28;20055;-87
2023/09/02 00:20:10;;;;;;;4.22;3.03;;;18.00;65.20;;;;;;4937829;28;20055;-87
2023/09/02 00:22:38;;;;;;;3.88;3.15;;;18.00;65.20;;;;;;4939548;28;20653;-86
2023/09/02 00:25:06;;;;;;;4.13;3.17;;;18.00;65.30;;;;;;4938523;28;20136;-87
2023/09/02 00:27:36;;;;;;;7.00;3.47;;;18.00;65.20;;;;;;4939259;28;20051;-86
2023/09/02 00:30:14;;;;;;;3.47;3.03;;;18.00;65.20;;;;;;4938365;28;20503;-87
2023/09/02 00:32:47;;;;;;;4.55;3.60;;;18.00;65.20;;;;;;4937677;28;20059;-86
2023/09/02 00:35:18;;;;;;;5.32;4.05;;;18.00;65.20;;;;;;4937400;28;20069;-87
2023/09/02 00:37:46;;;;;;;9.25;4.45;;;18.00;65.20;;;;;;4938508;28;20059;-87
2023/09/02 00:40:18;;;;;;;7.00;4.40;;;18.00;65.20;;;;;;4939036;28;20171;-87
2023/09/02 00:42:46;;;;;;;5.93;4.85;;;18.00;65.20;;;;;;4939997;28;20055;-87
2023/09/02 00:45:15;;;;;;;5.95;4.40;;;17.90;65.10;;;;;;4939208;28;20059;-87
2023/09/02 00:47:43;;;;;;;8.23;5.45;;;17.90;65.00;;;;;;4939674;28;20051;-89
2023/09/02 00:50:11;;;;;;;6.25;4.75;;;17.90;64.90;;;;;;4939085;28;20062;-86
2023/09/02 00:52:40;;;;;;;7.88;5.40;;;17.90;65.00;;;;;;4940895;28;20430;-87
2023/09/02 00:55:07;;;;;;;6.35;4.63;;;17.90;65.10;;;;;;4939772;28;20535;-86
2023/09/02 00:57:36;;;;;;;6.38;5.03;;;17.90;65.10;;;;;;4940295;28;20067;-87
2023/09/02 01:00:09;;;;;;;6.18;4.82;;;17.90;65.30;;;;;;4938752;28;20499;-87
2023/09/02 01:02:38;;;;;;;6.55;4.90;;;17.90;65.30;;;;;;4962896;23;20054;-57
2023/09/02 01:05:07;;;;;;;6.78;4.85;;;17.80;65.20;;;;;;4963142;28;20062;-57
2023/09/02 01:07:35;;;;;;;6.43;4.80;;;17.90;65.30;;;;;;4963484;28;20055;-57
2023/09/02 01:10:04;;;;;;;5.55;4.28;;;17.90;65.30;;;;;;4963731;28;20062;-58
2023/09/02 01:12:32;;;;;;;8.23;4.40;;;17.90;65.40;;;;;;4963978;28;20070;-56
2023/09/02 01:15:00;;;;;;;4.57;3.60;;;17.80;65.40;;;;;;4962430;28;20084;-59
2023/09/02 01:17:28;;;;;;;5.75;3.92;;;17.80;65.40;;;;;;4964093;28;20061;-57
2023/09/02 01:19:56;;;;;;;4.13;3.20;;;17.80;65.50;;;;;;4961861;28;20061;-58
2023/09/02 01:22:41;;;;;;;4.38;3.42;;;17.80;65.50;;;;;;4963338;28;20059;-56
2023/09/02 01:25:23;;;;;;;4.93;3.45;;;17.80;65.60;;;;;;4963831;28;20498;-57
2023/09/02 01:27:56;;;;;;;7.55;3.72;;;17.80;65.60;;;;;;4963127;28;20059;-55
2023/09/02 01:30:27;;;;;;;4.78;3.40;;;17.80;65.40;;;;;;4963132;28;20064;-58
2023/09/02 01:32:56;;;;;;;4.50;3.10;;;17.80;65.50;;;;;;4962245;28;20070;-55
2023/09/02 01:35:28;;;;;;;3.70;2.92;;;17.80;65.50;;;;;;4961908;28;20832;-52
2023/09/02 01:37:57;;;;;;;4.70;2.80;;;17.80;65.50;;;;;;4962880;28;20062;-57
2023/09/02 01:40:26;;;;;;;5.25;3.03;;;17.80;65.60;;;;;;4963465;28;20422;-52
2023/09/02 01:42:57;;;;;;;4.40;2.88;;;17.70;65.50;;;;;;4963077;28;20475;-58
2023/09/02 01:45:27;;;;;;;6.07;3.13;;;17.80;65.60;;;;;;4962804;28;20054;-57
2023/09/02 01:47:55;;;;;;;6.53;3.20;;;17.70;65.60;;;;;;4962740;28;20046;-58
2023/09/02 01:50:27;;;;;;;4.93;3.17;;;17.70;65.60;;;;;;4962204;28;20513;-54
2023/09/02 01:52:56;;;;;;;4.90;3.53;;;17.70;65.60;;;;;;4962378;28;20440;-58
2023/09/02 01:55:24;;;;;;;4.38;2.65;;;17.70;65.60;;;;;;4962182;28;20058;-57
2023/09/02 01:57:52;;;;;;;4.60;3.20;;;17.70;65.60;;;;;;4962717;28;20066;-58
2023/09/02 02:00:20;;;;;;;4.55;3.20;;;17.70;65.60;;;;;;4962088;28;20081;-59
2023/09/02 02:02:49;;;;;;;3.95;3.00;;;17.70;65.70;;;;;;4962804;28;20059;-57
2023/09/02 02:05:19;;;;;;;5.10;3.15;;;17.70;65.70;;;;;;4961722;28;20418;-58
2023/09/02 02:07:52;;;;;;;7.72;2.95;;;17.70;65.80;;;;;;4963115;28;20495;-58
2023/09/02 02:10:24;;;;;;;4.53;3.00;;;17.70;65.80;;;;;;4963013;28;20074;-54
2023/09/02 02:12:52;;;;;;;3.58;2.72;;;17.70;65.80;;;;;;4962080;28;20500;-54
2023/09/02 02:15:20;;;;;;;4.57;3.40;;;17.70;65.80;;;;;;4962011;28;20065;-53
2023/09/02 02:17:48;;;;;;;3.40;2.80;;;17.60;65.80;;;;;;4962793;28;20507;-56
2023/09/02 02:20:15;;;;;;;13.38;3.20;;;17.70;65.80;;;;;;4962300;28;20066;-55
2023/09/02 02:22:42;;;;;;;3.40;2.95;;;17.60;65.70;;;;;;4962560;28;20062;-55
2023/09/02 02:25:09;;;;;;;5.43;3.28;;;17.60;65.80;;;;;;4963140;28;20069;-54
2023/09/02 02:27:37;;;;;;;4.53;3.53;;;17.60;65.70;;;;;;4963363;28;20391;-51
2023/09/02 02:30:05;;;;;;;6.75;3.15;;;17.60;66.40;;;;;;4962253;28;20062;-55
2023/09/02 02:32:34;;;;;;;3.58;2.95;;;17.60;65.60;;;;;;4963987;28;20069;-55
2023/09/02 02:35:01;;;;;;;4.95;3.20;;;17.60;65.50;;;;;;4961150;28;20066;-54
2023/09/02 02:37:28;;;;;;;3.83;3.10;;;17.60;65.60;;;;;;4962653;28;20059;-54
2023/09/02 02:39:55;;;;;;;4.60;3.17;;;17.60;65.60;;;;;;4962219;28;20399;-55
2023/09/02 02:42:22;;;;;;;3.28;2.60;;;17.60;65.70;;;;;;4962721;28;20054;-55
2023/09/02 02:44:50;;;;;;;3.30;3.00;;;17.60;65.70;;;;;;4962034;28;20054;-55
2023/09/02 02:47:17;;;;;;;4.03;3.22;;;17.60;65.70;;;;;;4964013;28;20058;-55
2023/09/02 02:49:46;;;;;;;3.60;3.15;;;17.60;65.80;;;;;;4960338;28;20059;-55
2023/09/02 02:52:13;;;;;;;3.47;2.95;;;17.60;66.60;;;;;;4962649;28;20055;-54
2023/09/02 02:54:40;;;;;;;3.20;2.88;;;17.60;65.80;;;;;;4962450;28;20055;-56
2023/09/02 02:57:07;;;;;;;3.78;3.00;;;17.60;65.90;;;;;;4962103;28;20063;-55
2023/09/02 02:59:35;;;;;;;4.05;2.88;;;17.60;65.80;;;;;;4963258;28;20051;-55
2023/09/02 03:02:02;;;;;;;2.67;2.45;;;17.60;65.80;;;;;;4963091;28;20434;-56
2023/09/02 03:04:29;;;;;;;5.95;2.80;;;17.60;65.90;;;;;;4962102;28;20507;-55
2023/09/02 03:06:58;;;;;;;7.88;2.45;;;17.60;65.80;;;;;;4962213;28;20059;-56
2023/09/02 03:09:25;;;;;;;3.35;2.80;;;17.60;65.80;;;;;;4962318;28;20050;-55
2023/09/02 03:11:52;;;;;;;3.40;2.78;;;17.60;65.70;;;;;;4962872;28;20506;-54
2023/09/02 03:14:19;;;;;;;2.65;2.45;;;17.60;65.70;;;;;;4962407;28;20062;-55
2023/09/02 03:16:46;;;;;;;2.22;2.03;;;17.60;65.70;;;;;;4962116;28;20062;-55
2023/09/02 03:19:14;;;;;;;4.63;2.40;;;17.60;65.70;;;;;;4961749;28;20054;-56
2023/09/02 03:21:41;;;;;;;6.20;2.55;;;17.60;65.70;;;;;;4960930;28;20046;-55
2023/09/02 03:24:10;;;;;;;3.15;2.17;;;17.60;65.60;;;;;;4965059;28;21506;-56
2023/09/02 03:26:37;;;;;;;1.77;1.67;;;17.60;65.60;;;;;;4967110;28;20513;-55
2023/09/02 03:29:05;;;;;;;2.20;2.00;;;17.50;65.60;;;;;;4966315;28;20051;-54
2023/09/02 03:31:32;;;;;;;2.10;1.90;;;17.60;65.70;;;;;;4965053;28;20055;-55
2023/09/02 03:33:59;;;;;;;2.38;2.15;;;17.50;65.60;;;;;;4965981;28;20403;-52
2023/09/02 03:36:26;;;;;;;2.72;1.95;;;17.50;65.50;;;;;;4964312;28;20055;-54
2023/09/02 03:38:54;;;;;;;2.10;1.67;;;17.50;65.50;;;;;;4966462;28;20914;-53
2023/09/02 03:41:23;;;;;;;3.03;2.08;;;17.50;65.50;;;;;;4966677;28;20059;-56
2023/09/02 03:43:50;;;;;;;2.17;1.83;;;17.50;65.50;;;;;;4966136;28;20058;-54
2023/09/02 03:46:18;;;;;;;2.00;1.58;;;17.50;65.60;;;;;;4965096;28;20054;-55
2023/09/02 03:48:46;;;;;;;3.25;1.80;;;17.50;65.60;;;;;;4964725;28;20415;-55
2023/09/02 03:51:16;;;;;;;1.75;1.58;;;17.50;65.50;;;;;;4964349;28;20974;-55
2023/09/02 03:53:43;;;;;;;2.05;1.63;;;17.50;65.50;;;;;;4966143;28;20447;-56
2023/09/02 03:56:11;;;;;;;1.40;1.30;;;17.50;65.60;;;;;;4965715;28;20066;-56
2023/09/02 03:58:40;;;;;;;1.33;1.17;;;17.50;65.60;;;;;;4965958;28;20065;-55
2023/09/02 04:01:07;;;;;;;1.75;1.13;;;17.50;65.60;;;;;;4965550;28;20082;-50
2023/09/02 04:03:36;;;;;;;1.40;1.30;;;17.50;65.60;;;;;;4965433;28;20066;-54
2023/09/02 04:06:03;;;;;;;4.05;1.77;;;17.40;65.50;;;;;;4963548;28;20055;-54
2023/09/02 04:08:34;;;;;;;1.20;1.10;;;17.40;65.40;;;;;;4978330;28;20050;-54
2023/09/02 04:11:02;;;;;;;1.98;1.00;;;17.50;66.20;;;;;;4984634;28;20054;-55
2023/09/02 04:13:29;;;;;;;1.25;1.05;;;17.40;65.50;;;;;;4984690;28;20058;-55
2023/09/02 04:16:00;;;;;;;1.70;1.05;;;17.40;65.50;;;;;;4983460;28;20391;-55
2023/09/02 04:18:27;;;;;;;1.02;0.95;;;17.40;65.50;;;;;;4983246;28;20054;-54
2023/09/02 04:20:55;;;;;;;1.75;0.93;;;17.40;65.50;;;;;;4983149;28;20058;-55
2023/09/02 04:23:22;;;;;;;1.65;1.10;;;17.40;65.60;;;;;;4982373;28;20058;-52
2023/09/02 04:25:51;;;;;;;1.70;1.10;;;17.40;65.60;;;;;;4983477;28;20056;-55
2023/09/02 04:28:19;;;;;;;1.42;1.05;;;17.40;65.70;;;;;;4983681;28;20058;-56
2023/09/02 04:30:47;;;;;;;1.75;1.20;;;17.40;65.70;;;;;;4983201;28;20050;-56
2023/09/02 04:33:18;;;;;;;1.75;0.93;;;17.40;65.70;;;;;;4983809;28;20054;-54
2023/09/02 04:35:46;;;;;;;0.70;0.70;;;17.40;65.70;;;;;;4982337;28;20046;-53
2023/09/02 04:38:14;;;;;;;1.85;0.85;;;17.40;65.70;;;;;;4983155;28;20054;-55
2023/09/02 04:40:45;;;;;;;2.05;1.17;;;17.40;65.60;;;;;;4984068;28;20058;-54
2023/09/02 04:43:14;;;;;;;0.93;0.80;;;17.30;65.60;;;;;;4983998;28;20061;-54
2023/09/02 04:45:43;;;;;;;1.58;0.95;;;17.30;65.60;;;;;;4983166;28;20054;-54
2023/09/02 04:48:11;;;;;;;1.10;1.00;;;17.30;65.60;;;;;;4984117;28;20058;-55
2023/09/02 04:50:40;;;;;;;2.00;1.02;;;17.30;65.70;;;;;;4983434;28;20054;-56
2023/09/02 04:53:08;;;;;;;1.63;1.20;;;17.30;65.70;;;;;;4983804;28;20061;-55
2023/09/02 04:55:39;;;;;;;1.40;1.10;;;17.30;65.80;;;;;;4983341;28;20532;-56
2023/09/02 04:58:07;;;;;;;1.60;1.10;;;17.30;65.90;;;;;;4983624;28;20057;-54
2023/09/02 05:00:35;;;;;;;1.85;1.10;;;17.30;66.00;;;;;;4983484;28;20418;-55
2023/09/02 05:03:02;;;;;;;1.60;1.20;;;17.30;66.00;;;;;;4983743;28;20069;-55
2023/09/02 05:05:31;;;;;;;2.15;1.63;;;17.30;66.00;;;;;;4981912;28;20085;-54
2023/09/02 05:08:00;;;;;;;1.60;1.40;;;17.30;66.00;;;;;;4983939;28;20058;-55
2023/09/02 05:10:27;;;;;;;2.05;1.55;;;17.30;66.10;;;;;;4983572;28;20061;-55
2023/09/02 05:12:55;;;;;;;1.65;1.33;;;17.30;66.20;;;;;;4982569;28;20502;-51
2023/09/02 05:15:21;;;;;;;1.40;1.30;;;17.30;66.30;;;;;;4982791;28;20069;-52
2023/09/02 05:17:50;;;;;;;2.47;1.20;;;17.30;66.30;;;;;;4984321;28;20065;-55
2023/09/02 05:20:18;;;;;;;1.55;1.33;;;17.30;66.40;;;;;;4981153;28;20518;-54
2023/09/02 05:22:45;;;;;;;1.58;1.45;;;17.30;66.40;;;;;;4982917;28;20065;-54
2023/09/02 05:25:14;;;;;;;2.03;1.45;;;17.30;66.50;;;;;;4982705;28;20084;-55
2023/09/02 05:27:41;;;;;;;1.58;1.27;;;17.30;66.60;;;;;;4982021;28;20521;-53
2023/09/02 05:30:09;;;;;;;5.97;1.60;;;17.40;66.80;;;;;;4982617;28;20054;-54
2023/09/02 05:32:36;;;;;;;1.90;1.40;;;17.40;66.80;;;;;;4982964;28;20498;-53
2023/09/02 05:35:04;;;;;;;1.83;1.48;;;17.40;66.90;;;;;;4981259;28;20057;-52
2023/09/02 05:37:31;;;;;;;2.35;1.80;;;17.40;67.00;;;;;;4982862;28;20062;-55
2023/09/02 05:39:59;;;;;;;4.32;2.15;;;17.40;67.10;;;;;;4982062;28;20054;-54
2023/09/02 05:42:27;;;;;;;3.45;2.33;;;17.40;67.20;;;;;;4982795;28;20060;-55
2023/09/02 05:44:54;;;;;;;3.55;2.78;;;17.40;67.30;;;;;;4982716;28;20071;-51
2023/09/02 05:47:22;;;;;;;4.25;3.25;;;17.40;67.30;;;;;;4982006;28;20497;-54
2023/09/02 05:49:49;;;;;;;4.32;3.50;;;17.50;67.40;;;;;;4980474;28;20046;-54
2023/09/02 05:52:16;;;;;;;6.35;3.08;;;17.50;67.40;;;;;;4982710;28;20054;-55
2023/09/02 05:54:43;;;;;;;3.95;3.05;;;17.50;67.40;;;;;;4981631;28;20495;-54
2023/09/02 05:57:11;;;;;;;5.18;3.10;;;17.50;67.40;;;;;;4983434;28;20061;-55
2023/09/02 05:59:39;;;;;;;3.80;3.15;;;17.60;67.50;;;;;;4981747;28;20047;-54
2023/09/02 06:02:06;;;;;;;5.03;3.65;;;17.60;67.50;;;;;;4982419;28;20430;-54
2023/09/02 06:04:34;;;;;;;3.80;2.85;;;17.60;67.60;;;;;;4981517;28;20058;-50
2023/09/02 06:07:01;;;;;;;4.32;3.10;;;17.60;67.60;;;;;;4982194;28;20058;-56
2023/09/02 06:09:29;;;;;;;3.15;2.38;;;17.60;67.70;;;;;;4982310;28;20061;-55
2023/09/02 06:11:56;;;;;;;4.47;2.72;;;17.70;67.70;;;;;;4983613;28;20050;-55
2023/09/02 06:15:14;;;;;;;3.85;3.15;;;17.70;67.70;;;;;;4981985;28;20406;-55
2023/09/02 06:17:43;;;;;;;2.97;2.60;;;17.70;67.70;;;;;;4982035;28;20062;-54
2023/09/02 06:20:15;;;;;;;3.35;3.05;;;17.80;67.60;;;;;;4980188;28;20054;-55
2023/09/02 06:22:42;;;;;;;5.97;3.00;;;17.80;67.70;;;;;;4981994;28;20077;-54
2023/09/02 06:25:10;;;;;;;5.35;3.28;;;17.80;67.80;;;;;;4981194;28;20065;-54
2023/09/02 06:27:37;;;;;;;3.75;2.78;;;17.80;67.80;;;;;;4982337;28;20050;-54
2023/09/02 06:30:05;;;;;;;4.03;2.67;;;17.80;67.80;;;;;;4982837;28;20058;-55
2023/09/02 06:32:33;;;;;;;3.70;2.85;;;17.90;68.00;;;;;;4982357;28;20062;-55
2023/09/02 06:35:02;;;;;;;2.72;2.33;;;17.90;68.10;;;;;;4979924;28;20058;-50
2023/09/02 06:37:29;;;;;;;3.13;2.67;;;17.90;68.00;;;;;;4981438;28;20054;-55
2023/09/02 06:39:56;;;;;;;3.28;2.70;;;17.90;68.00;;;;;;4981558;28;20054;-55
2023/09/02 06:42:24;;;;;;;4.13;3.08;;;18.00;68.10;;;;;;4982278;28;20054;-55
2023/09/02 06:44:53;;;;;;;3.88;2.83;;;18.00;68.10;;;;;;4980656;28;20058;-56
2023/09/02 06:47:21;;;;;;;3.10;2.60;;;18.00;68.30;;;;;;4981801;28;20073;-54
2023/09/02 06:49:48;;;;;;;2.67;2.38;;;18.10;68.40;;;;;;4979885;28;20502;-54
2023/09/02 06:52:16;;;;;;;2.13;1.92;;;18.10;68.40;;;;;;4981342;28;20050;-55
2023/09/02 06:54:43;;;;;;;2.40;2.20;;;18.10;68.40;;;;;;4980649;28;20063;-54
2023/09/02 06:57:10;;;;;;;2.60;2.30;;;18.20;68.60;;;;;;4982764;28;20544;-54
2023/09/02 06:59:38;;;;;;;3.72;2.03;;;18.20;68.60;;;;;;4985608;28;20058;-55
2023/09/02 07:02:05;;;;;;;2.38;2.10;;;18.30;68.70;;;;;;4985355;28;20069;-54
2023/09/02 07:04:32;;;;;;;2.90;2.60;;;18.30;68.70;;;;;;4984669;28;20054;-54
2023/09/02 07:06:59;;;;;;;2.17;1.98;;;18.30;68.70;;;;;;4984803;28;20475;-54
2023/09/02 07:09:28;;;;;;;2.47;1.98;;;18.40;68.80;;;;;;4986090;28;20365;-53
2023/09/02 07:11:56;;;;;;;2.60;2.15;;;18.40;68.80;;;;;;4985171;28;20050;-53
2023/09/02 07:14:23;;;;;;;5.70;2.45;;;18.40;68.90;;;;;;4984310;28;20069;-53
2023/09/02 07:16:51;;;;;;;3.92;2.70;;;18.40;68.90;;;;;;4985035;28;20058;-55
2023/09/02 07:19:18;;;;;;;2.70;2.45;;;18.50;68.90;;;;;;4985576;28;20541;-55
2023/09/02 07:21:45;;;;;;;2.80;2.28;;;18.50;69.00;;;;;;4984145;28;20061;-53
2023/09/02 07:24:13;;;;;;;2.63;2.40;;;18.50;69.00;;;;;;4985964;28;20085;-52
2023/09/02 07:26:42;;;;;;;4.88;2.10;;;18.60;69.20;;;;;;4985432;28;20050;-55
2023/09/02 07:29:09;;;;;;;2.30;2.10;;;18.60;69.40;;;;;;4985002;28;20425;-53
2023/09/02 07:31:36;;;;;;;2.95;2.50;;;18.60;69.60;;;;;;4984616;28;20058;-49
2023/09/02 07:34:04;;;;;;;2.83;2.42;;;18.70;69.80;;;;;;4985321;28;20513;-55
2023/09/02 07:36:31;;;;;;;2.60;2.40;;;18.70;70.00;;;;;;4984242;28;20053;-52
2023/09/02 07:38:58;;;;;;;5.32;2.13;;;18.70;70.10;;;;;;4985490;28;20069;-53
2023/09/02 07:41:25;;;;;;;4.80;2.70;;;18.80;70.30;;;;;;4984766;28;20050;-55
2023/09/02 07:43:54;;;;;;;3.97;2.53;;;18.80;70.50;;;;;;4985288;28;20066;-55
2023/09/02 07:46:21;;;;;;;2.97;2.10;;;18.90;70.70;;;;;;4983358;28;20502;-55
2023/09/02 07:48:50;;;;;;;4.53;2.90;;;18.90;70.70;;;;;;4984820;28;20065;-55
2023/09/02 07:51:18;;;;;;;2.50;2.20;;;18.90;70.90;;;;;;4984716;28;20050;-55
2023/09/02 07:53:45;;;;;;;2.22;2.03;;;19.00;71.20;;;;;;4985137;28;20080;-55
2023/09/02 07:56:12;;;;;;;2.80;2.50;;;19.00;71.30;;;;;;4985154;28;20514;-54
2023/09/02 07:58:42;;;;;;;2.30;2.10;;;19.10;71.50;;;;;;4984632;28;20422;-55
2023/09/02 08:01:10;;;;;;;1.98;1.77;;;19.10;71.60;;;;;;4983868;28;20046;-55
2023/09/02 08:03:38;;;;;;;2.38;1.90;;;19.20;71.90;;;;;;4984468;28;20051;-54
2023/09/02 08:06:06;;;;;;;2.17;1.80;;;19.20;71.80;;;;;;4982730;28;20517;-55
2023/09/02 08:08:33;;;;;;;2.28;1.77;;;19.30;72.00;;;;;;4985178;28;20506;-45
2023/09/02 08:11:04;;;;;;;1.60;1.50;;;19.30;71.90;;;;;;4984353;28;20053;-44
2023/09/02 08:13:31;;;;;;;1.80;1.60;;;19.40;72.00;;;;;;4984667;28;20046;-44
2023/09/02 08:15:58;;;;;;;2.05;1.60;;;19.50;72.10;;;;;;4983373;28;20495;-43
2023/09/02 08:18:27;;;;;;;2.20;1.73;;;19.50;72.20;;;;;;4985246;28;20050;-43
2023/09/02 08:20:54;;;;;;;1.52;1.42;;;19.60;72.40;;;;;;4981350;28;20423;-56
2023/09/02 08:23:21;;;;;;;1.52;1.42;;;19.60;72.40;;;;;;4984261;28;20054;-53
2023/09/02 08:25:49;;;;;;;3.25;1.75;;;19.60;72.50;;;;;;4983491;28;20054;-49
2023/09/02 08:28:16;;;;;;;1.38;1.20;;;19.70;72.50;;;;;;4984483;28;20042;-47
2023/09/02 08:30:45;;;;;;;1.25;1.15;;;19.70;72.40;;;;;;4984177;28;20062;-44
2023/09/02 08:33:12;;;;;;;1.63;1.52;;;19.80;72.60;;;;;;4984593;28;20062;-44
2023/09/02 08:35:41;;;;;;;1.10;1.00;;;19.80;72.60;;;;;;4982625;28;20058;-44
2023/09/02 08:38:08;;;;;;;7.55;1.42;;;19.90;72.70;;;;;;4983255;28;20066;-47
2023/09/02 08:40:35;;;;;;;1.48;1.10;;;20.00;72.70;;;;;;4983876;28;20486;-47
2023/09/02 08:43:02;;;;;;;1.35;1.25;;;20.00;72.70;;;;;;4984199;28;20069;-46
2023/09/02 08:45:30;;;;;;;1.48;1.38;;;20.00;72.60;;;;;;4984905;28;20057;-45
2023/09/02 08:48:01;;;;;;;1.10;1.00;;;20.10;72.60;;;;;;4983277;28;20054;-46
2023/09/02 08:50:29;;;;;;;2.08;1.08;;;20.10;72.60;;;;;;4981879;28;20058;-43
2023/09/02 08:52:58;;;;;;;2.25;0.90;;;20.20;72.40;;;;;;4983152;28;20509;-50
2023/09/02 08:55:27;;;;;;;2.55;1.17;;;20.20;72.30;;;;;;4983320;28;20050;-46
2023/09/02 08:57:56;;;;;;;1.20;1.05;;;20.20;72.30;;;;;;4983785;28;20554;-45
2023/09/02 09:00:24;;;;;;;1.20;1.10;;;20.30;72.20;;;;;;4984413;28;20065;-46
2023/09/02 09:02:51;;;;;;;1.40;0.88;;;20.40;72.30;;;;;;4983136;28;20058;-47
2023/09/02 09:05:19;;;;;;;1.10;1.00;;;20.40;72.30;;;;;;4981738;28;20054;-46
2023/09/02 09:07:48;;;;;;;1.20;0.98;;;20.40;72.40;;;;;;4983135;28;20046;-47
2023/09/02 09:10:18;;;;;;;1.13;1.02;;;20.50;72.60;;;;;;4982692;28;20058;-52
2023/09/02 09:12:48;;;;;;;1.40;1.10;;;20.60;72.50;;;;;;4983442;28;20050;-51
2023/09/02 09:15:19;;;;;;;1.10;0.85;;;20.60;72.60;;;;;;4982792;28;20053;-46
2023/09/02 09:17:46;;;;;;;1.10;0.90;;;20.60;72.50;;;;;;4983372;28;20384;-47
2023/09/02 09:20:15;;;;;;;1.27;0.90;;;20.70;72.50;;;;;;4982088;28;20058;-47
2023/09/02 09:22:43;;;;;;;1.27;0.90;;;20.80;72.50;;;;;;4983238;28;20054;-43
2023/09/02 09:25:10;;;;;;;0.98;0.90;;;20.70;72.30;;;;;;4982982;28;20057;-47
2023/09/02 09:27:39;;;;;;;1.50;1.00;;;20.80;72.30;;;;;;4983277;28;20062;-43
2023/09/02 09:30:07;;;;;;;1.30;0.80;;;20.90;72.50;;;;;;4982901;28;20151;-43
2023/09/02 09:32:34;;;;;;;1.65;0.95;;;20.90;72.60;;;;;;4982542;28;20529;-47
2023/09/02 09:35:02;;;;;;;1.27;0.90;;;21.00;72.50;;;;;;4981524;28;20406;-48
2023/09/02 09:37:31;;;;;;;1.15;0.82;;;21.00;72.50;;;;;;4983050;28;20522;-44
2023/09/02 09:39:58;;;;;;;1.30;1.00;;;21.00;72.60;;;;;;4983650;28;20414;-49
2023/09/02 09:42:34;;;;;;;1.85;1.02;;;21.10;72.70;;;;;;4982750;28;20057;-44
2023/09/02 09:45:03;;;;;;;1.25;1.10;;;21.20;73.50;;;;;;4981763;28;20418;-45
2023/09/02 09:47:30;;;;;;;1.67;1.08;;;21.20;72.70;;;;;;4982933;28;20057;-43
2023/09/02 09:50:14;;;;;;;1.67;1.10;;;21.30;72.80;;;;;;4981540;28;20058;-44
2023/09/02 09:52:57;;;;;;;0.90;0.70;;;21.40;72.70;;;;;;4982671;28;20042;-52
2023/09/02 09:55:25;;;;;;;1.17;0.80;;;21.40;72.70;;;;;;4981861;28;20065;-45
2023/09/02 09:57:54;;;;;;;2.08;0.80;;;21.50;72.90;;;;;;4983780;28;20055;-46
2023/09/02 10:00:23;;;;;;;2.70;0.93;;;21.50;73.10;;;;;;4981844;28;20050;-44
2023/09/02 10:02:51;;;;;;;1.10;0.90;;;21.60;73.00;;;;;;4980572;28;20058;-43
2023/09/02 10:05:25;;;;;;;1.80;0.82;;;21.70;72.60;;;;;;4980408;28;20054;-45
2023/09/02 10:08:00;;;;;;;3.25;0.75;;;21.70;72.30;;;;;;4982762;28;20065;-43
2023/09/02 10:10:29;;;;;;;3.75;1.33;;;21.80;72.20;;;;;;4982755;28;20498;-44
2023/09/02 10:12:57;;;;;;;0.95;0.85;;;21.90;72.00;;;;;;4983248;28;20054;-44
2023/09/02 10:15:26;;;;;;;2.70;0.60;;;21.90;71.70;;;;;;4982205;28;20543;-44
2023/09/02 10:17:59;;;;;;;1.17;0.90;;;22.00;71.10;;;;;;4981706;28;20492;-44
2023/09/02 10:20:28;;;;;;;2.97;1.05;;;22.10;70.60;;;;;;4981051;28;20061;-47
2023/09/02 10:23:04;;;;;;;1.38;0.90;;;22.10;70.30;;;;;;4982440;28;20482;-53
2023/09/02 10:25:38;;;;;;;1.73;0.95;;;22.20;70.40;;;;;;4981738;28;20062;-55
2023/09/02 10:28:06;;;;;;;1.08;0.90;;;22.20;70.20;;;;;;4983066;28;20062;-47
2023/09/02 10:30:42;;;;;;;0.93;0.68;;;22.30;70.20;;;;;;4981914;28;20069;-55
2023/09/02 10:33:21;;;;;;;1.67;1.10;;;22.30;70.10;;;;;;4981538;28;20050;-55
2023/09/02 10:35:57;;;;;;;4.00;0.80;;;22.40;70.30;;;;;;4979407;28;20061;-56
2023/09/02 10:38:27;;;;;;;1.13;0.93;;;22.40;70.20;;;;;;4981745;28;20574;-56
2023/09/02 10:41:02;;;;;;;1.42;0.80;;;22.50;70.00;;;;;;4982073;28;20062;-55
2023/09/02 10:43:30;;;;;;;1.10;0.80;;;22.50;69.60;;;;;;4981764;28;20066;-55
2023/09/02 10:45:59;;;;;;;1.52;1.00;;;22.60;69.50;;;;;;4982347;28;20061;-55
2023/09/02 10:51:49;;;;;;;3.35;0.75;;;22.70;68.60;;;;;;4981191;28;20049;-54
2023/09/02 10:54:16;;;;;;;1.00;0.90;;;22.70;68.20;;;;;;4982087;28;20532;-55
2023/09/02 10:56:44;;;;;;;0.88;0.70;;;22.80;67.90;;;;;;4981568;28;20054;-55
2023/09/02 10:59:11;;;;;;;1.48;0.85;;;22.80;68.00;;;;;;4981717;28;20483;-55
2023/09/02 11:01:45;;;;;;;1.05;0.65;;;22.80;67.10;;;;;;4981466;28;20120;-55
2023/09/02 11:04:12;;;;;;;3.33;0.80;;;22.90;66.80;;;;;;4981876;28;20061;-56
2023/09/02 11:07:13;;;;;;;4.13;0.85;;;22.90;66.70;;;;;;4981045;28;20054;-55
2023/09/02 11:09:53;;;;;;;2.05;0.73;;;22.90;65.90;;;;;;4980925;28;20062;-54
2023/09/02 11:12:21;;;;;;;1.77;0.70;;;23.00;65.50;;;;;;4981285;28;21096;-55
2023/09/02 11:15:16;;;;;;;1.25;0.75;;;23.00;64.80;;;;;;4980292;28;20054;-56
2023/09/02 11:17:45;;;;;;;1.00;0.70;;;23.10;64.70;;;;;;4980857;28;20061;-54
2023/09/02 11:20:14;;;;;;;0.88;0.65;;;23.10;64.70;;;;;;4980266;28;20057;-55
2023/09/02 11:22:55;;;;;;;2.90;0.60;;;23.20;65.00;;;;;;4981387;28;20353;-55
2023/09/02 11:25:28;;;;;;;0.50;0.50;;;23.20;65.00;;;;;;4980892;28;20057;-54
2023/09/02 11:27:55;;;;;;;2.50;0.70;;;23.20;64.00;;;;;;4981741;28;20062;-56
2023/09/02 11:30:23;;;;;;;2.95;0.70;;;23.30;63.30;;;;;;4981239;28;20058;-53
2023/09/02 11:32:54;;;;;;;1.02;0.63;;;23.30;63.10;;;;;;4981310;28;20057;-56
2023/09/02 11:35:26;;;;;;;2.28;0.70;;;23.40;62.90;;;;;;4980059;28;20509;-55
2023/09/02 11:37:54;;;;;;;1.75;0.60;;;23.40;62.10;;;;;;4981461;28;20054;-56
2023/09/02 11:40:24;;;;;;;1.58;0.80;;;23.40;61.80;;;;;;4982019;28;20065;-54
2023/09/02 11:42:52;;;;;;;1.25;0.50;;;23.50;61.90;;;;;;4982010;28;20055;-56
2023/09/02 11:45:21;;;;;;;3.58;0.80;;;23.50;62.10;;;;;;4984394;28;21418;-56
2023/09/02 11:47:50;;;;;;;0.70;0.63;;;23.60;61.80;;;;;;4984934;28;20054;-55
2023/09/02 11:50:20;;;;;;;0.73;0.50;;;23.60;61.10;;;;;;4983841;28;20073;-56
2023/09/02 11:52:48;;;;;;;0.80;0.70;;;23.70;61.00;;;;;;4984418;28;20058;-56
2023/09/02 11:55:17;;;;;;;2.92;0.70;;;23.80;60.20;;;;;;4986528;28;20065;-55
2023/09/02 11:57:46;;;;;;;2.70;0.73;;;23.80;59.40;;;;;;4984929;28;20077;-56
2023/09/02 12:00:18;;;;;;;2.28;0.60;;;23.90;59.20;;;;;;4983757;28;20054;-56
2023/09/02 12:02:47;;;;;;;1.23;0.73;;;23.90;59.00;;;;;;4984104;28;20066;-54
2023/09/02 12:05:15;;;;;;;0.50;0.50;;;24.00;57.90;;;;;;4982880;28;20058;-56
2023/09/02 12:07:45;;;;;;;2.10;0.55;;;24.10;58.10;;;;;;4984032;28;20058;-56
2023/09/02 12:10:14;;;;;;;2.40;0.68;;;24.10;57.20;;;;;;4985586;28;20058;-57
2023/09/02 12:12:42;;;;;;;1.58;0.55;;;24.20;57.00;;;;;;4984856;28;20401;-56
2023/09/02 12:15:14;;;;;;;1.38;0.68;;;24.20;57.00;;;;;;4984260;28;20414;-56
2023/09/02 12:17:41;;;;;;;1.70;0.70;;;24.30;56.20;;;;;;4983305;28;20058;-56
2023/09/02 12:20:11;;;;;;;0.85;0.60;;;24.30;56.00;;;;;;4982260;28;20054;-55
2023/09/02 12:22:39;;;;;;;1.02;0.80;;;24.40;56.80;;;;;;4984460;28;20058;-56
2023/09/02 12:25:18;;;;;;;0.70;0.52;;;24.50;57.10;;;;;;4984964;28;20054;-56
2023/09/02 12:27:45;;;;;;;1.30;0.60;;;24.50;57.00;;;;;;4984131;28;20058;-56
2023/09/02 12:30:14;;;;;;;2.47;0.80;;;24.50;56.80;;;;;;4983880;28;20418;-56
2023/09/02 12:32:41;;;;;;;1.05;0.65;;;24.50;56.10;;;;;;4984199;28;20058;-57
2023/09/02 12:35:09;;;;;;;0.60;0.60;;;24.50;56.20;;;;;;4982292;28;20058;-55
2023/09/02 12:37:37;;;;;;;2.83;0.70;;;24.60;55.80;;;;;;4984974;28;20061;-56
2023/09/02 12:40:11;;;;;;;0.40;0.40;;;24.60;55.00;;;;;;4984816;28;20057;-54
2023/09/02 12:42:41;;;;;;;0.70;0.55;;;24.60;54.90;;;;;;4983958;28;20077;-55
2023/09/02 12:45:09;;;;;;;0.82;0.50;;;24.60;54.90;;;;;;4983354;28;20066;-53
2023/09/02 12:47:38;;;;;;;0.35;0.30;;;24.60;53.80;;;;;;4983761;28;20061;-53
2023/09/02 12:50:06;;;;;;;1.13;0.60;;;24.60;54.10;;;;;;4982226;28;20057;-56
2023/09/02 12:52:35;;;;;;;0.68;0.50;;;24.60;54.70;;;;;;4984436;28;20065;-55
2023/09/02 12:55:04;;;;;;;1.17;0.40;;;24.70;53.40;;;;;;4983911;28;20046;-57
2023/09/02 12:57:32;;;;;;;1.10;0.60;;;24.70;53.10;;;;;;4983735;28;20050;-48
2023/09/02 13:00:02;;;;;;;0.52;0.40;;;24.70;53.70;;;;;;4983723;28;20064;-55